Terminal Aerodrome Forecast
Issued by NWS

Home | Current Version | Previous Version | Text Only | Print | Product List | Glossary On
Versions: 1 2 3 4 5 6 7 8 9 10 11 12
268
FTUS41 KCAR 270540
TAFBHB
TAF
KBHB 270540Z 2706/2806 36007KT P6SM OVC015
     FM271700 04009KT P6SM BKN015
     FM271800 04009KT P6SM SCT015
     FM272200 00000KT P6SM SCT025=

USA.gov is the U.S. government's official web portal to all federal, state and local government web resources and services.